createdAt,value
2022-10-15T00:00:14.058Z,15.20
2022-10-15T00:01:13.133Z,15.20
2022-10-15T00:02:13.654Z,15.10
2022-10-15T00:03:13.599Z,15.20
2022-10-15T00:04:23.643Z,15.20
2022-10-15T00:05:13.552Z,15.20
2022-10-15T00:07:33.511Z,15.10
2022-10-15T00:08:23.508Z,15.00
2022-10-15T00:09:13.487Z,15.10
2022-10-15T00:10:13.435Z,15.10
2022-10-15T00:11:13.414Z,15.10
2022-10-15T00:13:52.558Z,14.90
2022-10-15T00:14:33.422Z,14.80
2022-10-15T00:15:13.391Z,14.90
2022-10-15T00:16:17.365Z,14.90
2022-10-15T00:17:13.668Z,15.00
2022-10-15T00:18:13.984Z,14.90
2022-10-15T00:19:13.150Z,15.00
2022-10-15T00:20:13.386Z,15.10
2022-10-15T00:21:13.488Z,15.10
2022-10-15T00:23:35.823Z,15.10
2022-10-15T00:24:14.209Z,15.10
2022-10-15T00:25:13.273Z,15.10
2022-10-15T00:26:13.637Z,15.30
2022-10-15T00:27:14.123Z,15.30
2022-10-15T00:28:13.350Z,14.80
2022-10-15T00:29:13.699Z,14.50
2022-10-15T00:30:13.893Z,14.40
2022-10-15T00:31:14.083Z,14.40
2022-10-15T00:32:15.558Z,14.20
2022-10-15T00:33:18.869Z,14.30
2022-10-15T00:34:13.826Z,14.40
2022-10-15T00:35:14.176Z,14.30
2022-10-15T00:36:27.363Z,14.30
2022-10-15T00:37:47.925Z,14.20
2022-10-15T00:38:12.924Z,14.30
2022-10-15T00:39:12.997Z,14.50
2022-10-15T00:40:13.158Z,14.30
2022-10-15T00:41:13.214Z,14.40
2022-10-15T00:42:18.198Z,14.70
2022-10-15T00:43:13.285Z,14.70
2022-10-15T00:44:18.919Z,14.60
2022-10-15T00:45:13.043Z,14.50
2022-10-15T00:46:13.034Z,14.40
2022-10-15T00:48:15.189Z,14.50
2022-10-15T00:49:18.373Z,14.80
2022-10-15T00:50:13.554Z,14.80
2022-10-15T00:51:13.614Z,14.90
2022-10-15T00:52:13.697Z,14.90
2022-10-15T00:53:13.681Z,14.80
2022-10-15T00:54:13.777Z,14.80
2022-10-15T00:55:13.730Z,14.80
2022-10-15T00:56:14.035Z,14.90
2022-10-15T00:57:12.931Z,14.90
2022-10-15T00:59:13.292Z,14.80
2022-10-15T01:00:13.273Z,14.80
2022-10-15T01:01:13.199Z,14.90
2022-10-15T01:02:13.274Z,14.80
2022-10-15T01:03:13.132Z,14.80
2022-10-15T01:04:13.406Z,14.80
2022-10-15T01:05:13.404Z,14.70
2022-10-15T01:06:13.514Z,14.80
2022-10-15T01:07:13.592Z,14.80
2022-10-15T01:08:13.590Z,14.90
2022-10-15T01:09:13.690Z,15.00
2022-10-15T01:10:13.604Z,14.90
2022-10-15T01:11:13.781Z,14.80
2022-10-15T01:12:13.697Z,14.90
2022-10-15T01:13:13.664Z,14.80
2022-10-15T01:14:13.676Z,14.80
2022-10-15T01:15:13.599Z,14.80
2022-10-15T01:17:13.954Z,15.00
2022-10-15T01:18:13.163Z,14.80
2022-10-15T01:19:12.982Z,14.80
2022-10-15T01:20:12.787Z,14.90
2022-10-15T01:21:13.888Z,15.10
2022-10-15T01:22:14.207Z,14.80
2022-10-15T01:23:13.226Z,14.90
2022-10-15T01:24:13.340Z,15.10
2022-10-15T01:25:13.274Z,14.80
2022-10-15T01:26:13.110Z,14.80
2022-10-15T01:27:13.401Z,14.80
2022-10-15T01:28:13.435Z,14.60
2022-10-15T01:29:13.269Z,14.60
2022-10-15T01:30:14.602Z,14.70
2022-10-15T01:31:13.543Z,14.70
2022-10-15T01:32:13.539Z,14.70
2022-10-15T01:33:13.711Z,14.70
2022-10-15T01:34:17.255Z,14.80
2022-10-15T01:35:13.837Z,14.70
2022-10-15T01:36:13.806Z,14.60
2022-10-15T01:37:13.619Z,14.40
2022-10-15T01:38:13.573Z,14.30
2022-10-15T01:39:13.785Z,14.50
2022-10-15T01:40:13.850Z,14.50
2022-10-15T01:41:13.753Z,14.40
2022-10-15T01:42:13.673Z,14.40
2022-10-15T01:43:13.645Z,14.40
2022-10-15T01:44:13.918Z,14.50
2022-10-15T01:45:12.826Z,14.30
2022-10-15T01:46:13.873Z,14.40
2022-10-15T01:47:13.799Z,14.40
2022-10-15T01:48:13.894Z,14.20
2022-10-15T01:49:12.782Z,14.30
2022-10-15T01:50:13.713Z,14.30
2022-10-15T01:51:14.123Z,14.30
2022-10-15T01:52:13.053Z,14.20
2022-10-15T01:53:13.121Z,14.20
2022-10-15T01:54:13.037Z,14.20
2022-10-15T01:55:13.065Z,14.20
2022-10-15T01:56:13.151Z,14.30
2022-10-15T01:57:13.110Z,14.30
2022-10-15T01:58:12.899Z,14.40
2022-10-15T01:59:12.742Z,14.40
2022-10-15T02:00:13.554Z,14.30
2022-10-15T02:01:13.646Z,14.30
2022-10-15T02:02:13.626Z,14.30
2022-10-15T02:03:13.569Z,14.30
2022-10-15T02:04:13.477Z,14.30
2022-10-15T02:05:13.360Z,14.40
2022-10-15T02:06:13.628Z,14.30
2022-10-15T02:07:13.571Z,14.10
2022-10-15T02:08:13.900Z,14.20
2022-10-15T02:09:13.389Z,14.00
2022-10-15T02:10:13.485Z,14.10
2022-10-15T02:11:13.557Z,14.20
2022-10-15T02:12:13.664Z,14.40
2022-10-15T02:13:13.832Z,14.40
2022-10-15T02:14:14.183Z,14.20
2022-10-15T02:15:13.377Z,14.20
2022-10-15T02:16:13.351Z,14.40
2022-10-15T02:17:13.300Z,14.40
2022-10-15T02:18:13.300Z,14.20
2022-10-15T02:19:13.643Z,14.20
2022-10-15T02:20:13.689Z,14.20
2022-10-15T02:21:13.645Z,14.20
2022-10-15T02:22:13.846Z,14.10
2022-10-15T02:23:13.881Z,13.90
2022-10-15T02:24:13.155Z,14.00
2022-10-15T02:25:13.381Z,14.00
2022-10-15T02:26:13.270Z,13.90
2022-10-15T02:27:13.189Z,14.20
2022-10-15T02:28:13.403Z,14.20
2022-10-15T02:29:13.534Z,14.20
2022-10-15T02:30:13.826Z,14.30
2022-10-15T02:31:12.852Z,14.30
2022-10-15T02:32:13.813Z,14.40
2022-10-15T02:33:13.831Z,14.40
2022-10-15T02:34:13.841Z,14.50
2022-10-15T02:35:13.887Z,14.40
2022-10-15T02:36:14.045Z,14.40
2022-10-15T02:37:13.259Z,14.20
2022-10-15T02:39:13.216Z,14.40
2022-10-15T02:40:13.357Z,14.20
2022-10-15T02:41:13.346Z,14.10
2022-10-15T02:42:13.352Z,14.20
2022-10-15T02:43:13.139Z,14.30
2022-10-15T02:44:13.487Z,14.10
2022-10-15T02:45:13.547Z,14.10
2022-10-15T02:46:13.616Z,14.20
2022-10-15T02:47:13.601Z,14.60
2022-10-15T02:48:13.753Z,14.70
2022-10-15T02:49:14.061Z,14.60
2022-10-15T02:50:13.151Z,14.50
2022-10-15T02:51:13.172Z,14.40
2022-10-15T02:52:13.065Z,14.40
2022-10-15T02:53:13.032Z,14.70
2022-10-15T02:54:13.196Z,14.80
2022-10-15T02:55:13.052Z,14.70
2022-10-15T02:56:13.055Z,14.50
2022-10-15T02:57:12.972Z,14.30
2022-10-15T02:58:12.841Z,14.40
2022-10-15T02:59:12.834Z,14.40
2022-10-15T03:00:13.829Z,14.30
2022-10-15T03:01:13.949Z,14.80
2022-10-15T03:02:15.436Z,14.70
2022-10-15T03:03:13.633Z,14.80
2022-10-15T03:04:12.924Z,14.70
2022-10-15T03:05:12.773Z,14.70
2022-10-15T03:06:13.593Z,14.70
2022-10-15T03:07:13.427Z,14.60
2022-10-15T03:08:13.440Z,14.60
2022-10-15T03:09:13.539Z,14.60
2022-10-15T03:10:13.579Z,14.70
2022-10-15T03:11:13.581Z,14.90
2022-10-15T03:12:13.528Z,14.80
2022-10-15T03:13:13.453Z,14.90
2022-10-15T03:14:13.496Z,14.70
2022-10-15T03:15:13.455Z,14.60
2022-10-15T03:16:13.375Z,14.60
2022-10-15T03:17:13.361Z,14.50
2022-10-15T03:18:13.382Z,14.40
2022-10-15T03:19:13.441Z,14.30
2022-10-15T03:20:13.300Z,14.40
2022-10-15T03:21:13.328Z,14.50
2022-10-15T03:22:13.710Z,14.30
2022-10-15T03:23:13.884Z,14.30
2022-10-15T03:24:14.008Z,14.30
2022-10-15T03:25:12.930Z,14.40
2022-10-15T03:26:12.969Z,14.40
2022-10-15T03:27:13.321Z,14.40
2022-10-15T03:28:13.291Z,14.20
2022-10-15T03:29:13.405Z,14.60
2022-10-15T03:30:13.748Z,14.70
2022-10-15T03:31:13.683Z,14.70
2022-10-15T03:32:13.930Z,14.40
2022-10-15T03:33:12.978Z,14.50
2022-10-15T03:34:12.900Z,14.40
2022-10-15T03:35:13.087Z,14.40
2022-10-15T03:36:13.001Z,14.20
2022-10-15T03:37:12.976Z,14.10
2022-10-15T03:38:13.174Z,14.10
2022-10-15T03:39:12.964Z,14.40
2022-10-15T03:40:14.589Z,14.20
2022-10-15T03:41:13.864Z,14.00
2022-10-15T03:42:13.819Z,13.90
2022-10-15T03:43:14.135Z,13.90
2022-10-15T03:44:13.424Z,14.00
2022-10-15T03:45:13.411Z,14.00
2022-10-15T03:46:13.400Z,14.00
2022-10-15T03:47:14.143Z,14.20
2022-10-15T03:48:13.067Z,14.10
2022-10-15T03:49:13.201Z,14.00
2022-10-15T03:50:13.210Z,14.00
2022-10-15T03:51:15.662Z,13.90
2022-10-15T03:52:13.696Z,14.10
2022-10-15T03:53:13.627Z,14.10
2022-10-15T03:54:13.842Z,14.10
2022-10-15T03:55:13.714Z,14.10
2022-10-15T03:56:13.822Z,13.90
2022-10-15T03:57:13.963Z,14.00
2022-10-15T03:58:13.126Z,13.80
2022-10-15T03:59:13.326Z,13.70
2022-10-15T04:00:13.489Z,14.00
2022-10-15T04:01:13.656Z,13.90
2022-10-15T04:02:13.645Z,14.00
2022-10-15T04:03:13.520Z,13.90
2022-10-15T04:04:13.571Z,14.00
2022-10-15T04:05:13.480Z,13.90
2022-10-15T04:06:13.684Z,13.90
2022-10-15T04:07:14.085Z,13.80
2022-10-15T04:08:12.971Z,13.80
2022-10-15T04:09:12.983Z,13.80
2022-10-15T04:10:12.957Z,13.80
2022-10-15T04:11:13.186Z,13.70
2022-10-15T04:12:13.461Z,13.70
2022-10-15T04:13:13.443Z,13.80
2022-10-15T04:14:13.401Z,13.90
2022-10-15T04:15:13.265Z,14.00
2022-10-15T04:16:13.245Z,14.00
2022-10-15T04:17:13.575Z,14.20
2022-10-15T04:18:13.873Z,14.00
2022-10-15T04:19:13.773Z,14.00
2022-10-15T04:20:13.694Z,14.00
2022-10-15T04:21:13.998Z,13.90
2022-10-15T04:22:12.865Z,14.00
2022-10-15T04:23:14.050Z,13.90
2022-10-15T04:24:12.995Z,14.20
2022-10-15T04:25:12.875Z,14.10
2022-10-15T04:26:14.039Z,14.10
2022-10-15T04:27:12.853Z,14.10
2022-10-15T04:28:13.691Z,13.90
2022-10-15T04:29:13.494Z,13.80
2022-10-15T04:30:13.414Z,13.90
2022-10-15T04:31:13.572Z,14.10
2022-10-15T04:32:13.733Z,14.00
2022-10-15T04:33:13.711Z,14.00
2022-10-15T04:34:13.990Z,14.10
2022-10-15T04:35:13.598Z,13.90
2022-10-15T04:36:13.639Z,14.20
2022-10-15T04:37:13.525Z,14.40
2022-10-15T04:38:13.775Z,14.20
2022-10-15T04:39:14.692Z,14.00
2022-10-15T04:40:14.010Z,14.10
2022-10-15T04:41:12.881Z,14.10
2022-10-15T04:42:13.932Z,14.10
2022-10-15T04:43:12.965Z,14.00
2022-10-15T04:44:13.161Z,14.10
2022-10-15T04:45:13.049Z,13.90
2022-10-15T04:46:12.913Z,14.20
2022-10-15T04:47:12.936Z,14.10
2022-10-15T04:48:13.238Z,14.10
2022-10-15T04:49:13.434Z,14.40
2022-10-15T04:50:13.550Z,14.30
2022-10-15T04:51:13.529Z,14.20
2022-10-15T04:52:13.609Z,14.00
2022-10-15T04:53:13.572Z,14.10
2022-10-15T04:54:13.990Z,14.10
2022-10-15T04:55:12.938Z,14.30
2022-10-15T04:56:13.084Z,14.10
2022-10-15T04:57:13.037Z,14.20
2022-10-15T04:58:13.191Z,14.20
2022-10-15T04:59:13.517Z,14.10
2022-10-15T05:00:13.648Z,14.10
2022-10-15T05:01:13.798Z,14.00
2022-10-15T05:02:14.144Z,14.10
2022-10-15T05:03:13.112Z,14.10
2022-10-15T05:04:13.069Z,14.00
2022-10-15T05:05:13.134Z,14.00
2022-10-15T05:06:13.317Z,14.00
2022-10-15T05:07:13.266Z,14.00
2022-10-15T05:08:13.202Z,14.10
2022-10-15T05:09:13.096Z,14.10
2022-10-15T05:10:13.007Z,14.10
2022-10-15T05:11:14.493Z,14.10
2022-10-15T05:12:13.731Z,13.90
2022-10-15T05:13:13.547Z,14.10
2022-10-15T05:14:13.969Z,14.10
2022-10-15T05:15:12.822Z,13.90
2022-10-15T05:16:13.852Z,14.00
2022-10-15T05:17:14.032Z,13.80
2022-10-15T05:18:13.020Z,14.00
2022-10-15T05:19:13.985Z,14.10
2022-10-15T05:20:12.997Z,14.00
2022-10-15T05:21:13.283Z,14.00
2022-10-15T05:22:13.622Z,14.10
2022-10-15T05:23:13.525Z,14.20
2022-10-15T05:24:13.335Z,14.10
2022-10-15T05:25:13.392Z,14.00
2022-10-15T05:26:13.401Z,14.10
2022-10-15T05:27:13.748Z,14.00
2022-10-15T05:28:13.721Z,14.00
2022-10-15T05:29:14.007Z,14.00
2022-10-15T05:30:13.064Z,14.10
2022-10-15T05:31:18.359Z,14.30
2022-10-15T05:32:13.106Z,14.40
2022-10-15T05:33:13.256Z,14.30
2022-10-15T05:34:13.276Z,14.40
2022-10-15T05:35:13.268Z,14.40
2022-10-15T05:36:13.731Z,14.30
2022-10-15T05:37:14.255Z,14.10
2022-10-15T05:38:13.495Z,14.20
2022-10-15T05:39:13.297Z,14.70
2022-10-15T05:40:13.417Z,14.50
2022-10-15T05:41:13.340Z,14.50
2022-10-15T05:42:13.774Z,15.00
2022-10-15T05:43:13.718Z,14.50
2022-10-15T05:44:13.785Z,14.70
2022-10-15T05:45:14.073Z,14.80
2022-10-15T05:46:13.011Z,14.80
2022-10-15T05:47:13.034Z,14.70
2022-10-15T05:48:12.940Z,14.40
2022-10-15T05:49:13.080Z,14.60
2022-10-15T05:50:12.983Z,14.70
2022-10-15T05:51:12.956Z,14.80
2022-10-15T05:52:12.866Z,14.80
2022-10-15T05:53:14.070Z,14.80
2022-10-15T05:54:13.095Z,14.40
2022-10-15T05:55:12.990Z,14.40
2022-10-15T05:56:12.956Z,14.60
2022-10-15T05:57:12.910Z,14.50
2022-10-15T05:58:12.965Z,14.50
2022-10-15T05:59:12.840Z,14.50
2022-10-15T06:00:14.173Z,14.60
2022-10-15T06:01:14.432Z,14.70
2022-10-15T06:02:13.421Z,14.40
2022-10-15T06:03:14.089Z,14.50
2022-10-15T06:04:13.224Z,14.60
2022-10-15T06:05:13.136Z,14.20
2022-10-15T06:06:13.034Z,14.00
2022-10-15T06:07:13.212Z,14.00
2022-10-15T06:08:12.988Z,14.10
2022-10-15T06:09:13.025Z,14.10
2022-10-15T06:10:13.034Z,14.10
2022-10-15T06:11:12.985Z,14.30
2022-10-15T06:12:13.075Z,14.30
2022-10-15T06:13:13.302Z,14.50
2022-10-15T06:14:13.308Z,14.50
2022-10-15T06:15:13.356Z,14.70
2022-10-15T06:16:14.723Z,14.60
2022-10-15T06:17:13.629Z,15.10
2022-10-15T06:18:13.766Z,15.00
2022-10-15T06:19:13.831Z,15.10
2022-10-15T06:20:13.695Z,14.90
2022-10-15T06:21:13.816Z,14.80
2022-10-15T06:22:14.020Z,14.80
2022-10-15T06:23:13.211Z,14.50
2022-10-15T06:24:13.169Z,14.60
2022-10-15T06:25:13.263Z,14.60
2022-10-15T06:26:13.279Z,14.70
2022-10-15T06:27:13.292Z,14.80
2022-10-15T06:28:13.283Z,14.50
2022-10-15T06:29:13.511Z,14.80
2022-10-15T06:30:13.681Z,15.00
2022-10-15T06:31:13.617Z,14.90
2022-10-15T06:32:13.629Z,14.70
2022-10-15T06:33:13.590Z,14.90
2022-10-15T06:34:13.873Z,15.00
2022-10-15T06:35:14.014Z,15.20
2022-10-15T06:36:12.810Z,15.10
2022-10-15T06:37:13.859Z,15.10
2022-10-15T06:38:13.795Z,14.80
2022-10-15T06:39:13.877Z,14.80
2022-10-15T06:40:15.036Z,14.90
2022-10-15T06:41:12.941Z,15.10
2022-10-15T06:42:13.241Z,15.20
2022-10-15T06:43:13.163Z,15.30
2022-10-15T06:44:13.515Z,15.30
2022-10-15T06:45:15.797Z,15.00
2022-10-15T06:46:13.161Z,15.20
2022-10-15T06:47:13.224Z,14.80
2022-10-15T06:48:13.724Z,15.00
2022-10-15T06:49:13.628Z,15.00
2022-10-15T06:50:13.835Z,15.00
2022-10-15T06:51:14.025Z,14.90
2022-10-15T06:52:13.374Z,14.80
2022-10-15T06:53:13.366Z,14.90
2022-10-15T06:54:13.433Z,14.80
2022-10-15T06:55:13.438Z,14.60
2022-10-15T06:56:13.364Z,14.80
2022-10-15T06:57:13.289Z,14.70
2022-10-15T06:58:13.626Z,14.90
2022-10-15T06:59:13.626Z,14.90
2022-10-15T07:00:13.907Z,14.90
2022-10-15T07:01:13.295Z,14.80
2022-10-15T07:02:13.457Z,15.20
2022-10-15T07:03:13.471Z,15.00
2022-10-15T07:04:13.392Z,14.90
2022-10-15T07:05:13.293Z,15.10
2022-10-15T07:06:13.393Z,14.90
2022-10-15T07:07:13.275Z,15.00
2022-10-15T07:08:16.967Z,15.00
2022-10-15T07:09:13.360Z,15.00
2022-10-15T07:10:13.235Z,15.00
2022-10-15T07:11:13.293Z,15.00
2022-10-15T07:12:13.183Z,15.20
2022-10-15T07:13:13.614Z,15.00
2022-10-15T07:14:13.690Z,15.40
2022-10-15T07:15:14.136Z,15.40
2022-10-15T07:16:13.218Z,15.50
2022-10-15T07:17:13.291Z,15.00
2022-10-15T07:18:40.090Z,15.50
2022-10-15T07:19:13.103Z,15.40
2022-10-15T07:20:12.959Z,15.60
2022-10-15T07:21:13.001Z,15.10
2022-10-15T07:22:13.267Z,15.30
2022-10-15T07:23:13.186Z,15.10
2022-10-15T07:24:13.401Z,15.00
2022-10-15T07:25:13.389Z,15.10
2022-10-15T07:26:13.291Z,15.40
2022-10-15T07:27:19.429Z,15.20
2022-10-15T07:28:13.628Z,15.30
2022-10-15T07:29:13.604Z,15.30
2022-10-15T07:30:13.748Z,15.20
2022-10-15T07:31:13.973Z,14.90
2022-10-15T07:32:13.148Z,14.90
2022-10-15T07:33:13.339Z,14.80
2022-10-15T07:34:14.144Z,14.90
2022-10-15T07:35:14.456Z,14.80
2022-10-15T07:36:13.684Z,14.90
2022-10-15T07:37:14.212Z,15.00
2022-10-15T07:38:13.119Z,15.00
2022-10-15T07:39:13.392Z,15.00
2022-10-15T07:40:15.911Z,14.90
2022-10-15T07:41:13.101Z,14.90
2022-10-15T07:43:13.265Z,15.00
2022-10-15T07:44:13.270Z,15.10
2022-10-15T07:45:13.438Z,14.90
2022-10-15T07:46:14.552Z,15.00
2022-10-15T07:47:14.072Z,15.10
2022-10-15T07:48:13.496Z,15.40
2022-10-15T07:49:13.856Z,15.40
2022-10-15T07:50:13.849Z,15.60
2022-10-15T07:51:13.709Z,15.50
2022-10-15T07:52:13.673Z,15.70
2022-10-15T07:53:13.577Z,15.50
2022-10-15T07:54:13.606Z,15.20
2022-10-15T07:55:13.616Z,15.40
2022-10-15T07:56:13.757Z,15.80
2022-10-15T07:57:13.626Z,15.90
2022-10-15T07:58:13.662Z,15.90
2022-10-15T07:59:13.839Z,16.10
2022-10-15T08:00:13.678Z,16.00
2022-10-15T08:01:13.813Z,16.30
2022-10-15T08:02:14.203Z,16.20
2022-10-15T08:03:13.313Z,15.80
2022-10-15T08:04:13.403Z,16.30
2022-10-15T08:05:13.358Z,16.50
2022-10-15T08:06:13.440Z,16.60
2022-10-15T08:07:13.690Z,16.30
2022-10-15T08:08:13.939Z,16.60
2022-10-15T08:09:12.840Z,16.60
2022-10-15T08:10:13.844Z,16.60
2022-10-15T08:11:14.057Z,16.50
2022-10-15T08:12:13.120Z,16.50
2022-10-15T08:13:13.419Z,16.10
2022-10-15T08:14:18.792Z,16.40
2022-10-15T08:15:13.722Z,16.70
2022-10-15T08:16:14.352Z,16.40
2022-10-15T08:17:13.176Z,16.30
2022-10-15T08:18:12.980Z,16.10
2022-10-15T08:19:13.038Z,16.20
2022-10-15T08:20:13.027Z,16.20
2022-10-15T08:21:12.931Z,16.10
2022-10-15T08:22:13.082Z,16.20
2022-10-15T08:23:12.885Z,16.20
2022-10-15T08:24:14.089Z,16.30
2022-10-15T08:25:13.202Z,16.60
2022-10-15T08:26:13.319Z,16.40
2022-10-15T08:27:13.285Z,16.60
2022-10-15T08:28:13.618Z,16.60
2022-10-15T08:29:13.780Z,16.80
2022-10-15T08:30:14.062Z,16.80
2022-10-15T08:31:12.964Z,17.10
2022-10-15T08:32:13.152Z,16.60
2022-10-15T08:33:13.168Z,16.70
2022-10-15T08:34:13.161Z,17.00
2022-10-15T08:35:13.292Z,17.10
2022-10-15T08:36:13.140Z,16.70
2022-10-15T08:38:16.108Z,16.50
2022-10-15T08:39:13.113Z,16.60
2022-10-15T08:40:18.030Z,16.60
2022-10-15T08:41:12.875Z,16.70
2022-10-15T08:42:13.929Z,16.70
2022-10-15T08:43:12.780Z,16.80
2022-10-15T08:44:14.022Z,16.60
2022-10-15T08:45:13.250Z,17.00
2022-10-15T08:46:13.372Z,17.00
2022-10-15T08:47:13.730Z,16.80
2022-10-15T08:48:13.661Z,16.90
2022-10-15T08:49:13.691Z,16.40
2022-10-15T08:50:13.669Z,16.90
2022-10-15T08:51:13.518Z,16.90
2022-10-15T08:52:13.748Z,16.80
2022-10-15T08:53:14.432Z,16.40
2022-10-15T08:54:13.288Z,16.40
2022-10-15T08:55:13.413Z,16.40
2022-10-15T08:56:13.750Z,16.70
2022-10-15T08:57:13.793Z,16.80
2022-10-15T08:58:13.711Z,16.70
2022-10-15T08:59:14.064Z,16.60
2022-10-15T09:00:18.074Z,16.80
2022-10-15T09:01:13.427Z,16.70
2022-10-15T09:02:13.681Z,17.10
2022-10-15T09:03:13.779Z,16.90
2022-10-15T09:04:13.998Z,16.60
2022-10-15T09:05:13.087Z,17.00
2022-10-15T09:06:18.178Z,17.10
2022-10-15T09:07:13.139Z,17.00
2022-10-15T09:08:13.486Z,16.90
2022-10-15T09:09:13.443Z,17.20
2022-10-15T09:10:13.517Z,16.90
2022-10-15T09:11:13.803Z,17.00
2022-10-15T09:12:13.915Z,17.00
2022-10-15T09:13:16.235Z,17.00
2022-10-15T09:14:23.918Z,17.10
2022-10-15T09:15:13.213Z,16.90
2022-10-15T09:16:13.393Z,17.10
2022-10-15T09:17:13.361Z,17.30
2022-10-15T09:18:13.586Z,16.80
2022-10-15T09:19:13.491Z,17.10
2022-10-15T09:20:13.583Z,17.50
2022-10-15T09:21:13.566Z,17.70
2022-10-15T09:22:13.600Z,17.40
2022-10-15T09:23:13.803Z,17.30
2022-10-15T09:24:13.719Z,17.20
2022-10-15T09:26:13.993Z,17.40
2022-10-15T09:27:12.879Z,17.60
2022-10-15T09:28:13.803Z,17.10
2022-10-15T09:29:41.150Z,17.50
2022-10-15T09:30:13.183Z,17.40
2022-10-15T09:31:13.411Z,17.70
2022-10-15T09:32:13.601Z,17.20
2022-10-15T09:33:13.559Z,17.50
2022-10-15T09:34:13.495Z,17.50
2022-10-15T09:35:13.394Z,17.90
2022-10-15T09:36:13.349Z,17.90
2022-10-15T09:37:13.521Z,18.40
2022-10-15T09:38:13.525Z,18.30
2022-10-15T09:39:13.409Z,18.40
2022-10-15T09:40:13.502Z,18.40
2022-10-15T09:41:13.369Z,18.40
2022-10-15T09:42:13.248Z,19.30
2022-10-15T09:43:13.283Z,19.30
2022-10-15T09:44:13.342Z,19.60
2022-10-15T09:45:13.451Z,20.50
2022-10-15T09:46:13.573Z,19.90
2022-10-15T09:47:13.522Z,20.00
2022-10-15T09:48:13.429Z,19.30
2022-10-15T09:49:13.545Z,18.90
2022-10-15T09:50:13.765Z,19.30
2022-10-15T09:51:24.098Z,21.10
2022-10-15T09:52:13.056Z,21.60
2022-10-15T09:53:13.258Z,22.10
2022-10-15T09:54:13.273Z,22.50
2022-10-15T09:55:18.229Z,23.20
2022-10-15T09:56:13.138Z,23.50
2022-10-15T09:57:13.282Z,23.60
2022-10-15T09:58:13.273Z,23.20
2022-10-15T09:59:13.314Z,23.50
2022-10-15T10:00:13.286Z,23.80
2022-10-15T10:01:18.313Z,24.10
2022-10-15T10:02:24.504Z,24.10
2022-10-15T10:03:13.898Z,22.90
2022-10-15T10:04:14.353Z,20.70
2022-10-15T10:05:23.676Z,19.20
2022-10-15T10:06:14.012Z,19.20
2022-10-15T10:07:13.134Z,19.20
2022-10-15T10:08:13.066Z,20.00
2022-10-15T10:09:15.852Z,20.60
2022-10-15T10:10:13.837Z,19.50
2022-10-15T10:11:14.250Z,19.60
2022-10-15T10:12:23.110Z,19.80
2022-10-15T10:13:16.746Z,19.60
2022-10-15T10:14:13.659Z,19.50
2022-10-15T10:15:13.577Z,19.80
2022-10-15T10:16:13.592Z,19.60
2022-10-15T10:17:25.325Z,18.90
2022-10-15T10:18:13.409Z,19.10
2022-10-15T10:19:13.474Z,18.80
2022-10-15T10:20:13.401Z,18.70
2022-10-15T10:21:13.791Z,19.10
2022-10-15T10:22:14.273Z,19.30
2022-10-15T10:23:23.942Z,18.50
2022-10-15T10:24:13.039Z,18.40
2022-10-15T10:25:46.406Z,18.10
2022-10-15T10:26:13.909Z,18.30
2022-10-15T10:27:13.826Z,18.20
2022-10-15T10:28:14.572Z,17.90
2022-10-15T10:29:45.128Z,17.70
2022-10-15T10:31:21.575Z,17.40
2022-10-15T10:32:13.891Z,17.60
2022-10-15T10:33:12.973Z,17.50
2022-10-15T10:34:13.008Z,17.10
2022-10-15T10:35:13.114Z,17.50
2022-10-15T10:36:13.377Z,17.60
2022-10-15T10:37:13.678Z,17.80
2022-10-15T10:38:13.843Z,17.90
2022-10-15T10:39:13.901Z,17.50
2022-10-15T10:40:13.323Z,17.90
2022-10-15T10:41:13.589Z,17.80
2022-10-15T10:42:13.789Z,17.70
2022-10-15T10:43:14.034Z,18.00
2022-10-15T10:44:13.248Z,18.30
2022-10-15T10:45:17.713Z,18.40
2022-10-15T10:46:13.859Z,18.50
2022-10-15T10:47:13.840Z,18.10
2022-10-15T10:48:14.229Z,18.50
2022-10-15T10:49:13.886Z,18.60
2022-10-15T10:50:13.293Z,18.60
2022-10-15T10:51:16.643Z,18.90
2022-10-15T10:52:13.959Z,18.70
2022-10-15T10:53:18.242Z,18.50
2022-10-15T10:54:13.534Z,18.00
2022-10-15T10:55:13.447Z,18.30
2022-10-15T10:56:13.643Z,18.40
2022-10-15T10:57:14.264Z,18.60
2022-10-15T10:58:13.380Z,18.50
2022-10-15T10:59:13.532Z,18.20
2022-10-15T11:00:13.486Z,18.20
2022-10-15T11:01:13.740Z,17.70
2022-10-15T11:02:12.810Z,17.80
2022-10-15T11:03:13.880Z,18.10
2022-10-15T11:04:16.926Z,17.90
2022-10-15T11:05:13.367Z,17.90
2022-10-15T11:06:13.234Z,17.70
2022-10-15T11:07:15.524Z,18.00
2022-10-15T11:08:13.945Z,18.20
2022-10-15T11:09:13.139Z,18.30
2022-10-15T11:10:13.021Z,18.10
2022-10-15T11:11:13.509Z,17.90
2022-10-15T11:12:14.096Z,18.30
2022-10-15T11:13:13.368Z,18.40
2022-10-15T11:14:13.397Z,18.50
2022-10-15T11:15:13.287Z,18.50
2022-10-15T11:16:13.512Z,18.40
2022-10-15T11:17:13.579Z,18.40
2022-10-15T11:18:13.553Z,18.30
2022-10-15T11:19:19.928Z,18.20
2022-10-15T11:20:32.081Z,18.50
2022-10-15T11:21:13.619Z,17.60
2022-10-15T11:22:13.747Z,17.70
2022-10-15T11:23:13.715Z,17.80
2022-10-15T11:25:13.031Z,18.00
2022-10-15T11:26:23.051Z,17.80
2022-10-15T11:27:13.136Z,17.80
2022-10-15T11:28:13.042Z,17.80
2022-10-15T11:29:34.560Z,17.80
2022-10-15T11:30:13.716Z,17.80
2022-10-15T11:31:13.797Z,17.50
2022-10-15T11:32:16.606Z,17.90
2022-10-15T11:33:13.499Z,18.10
2022-10-15T11:34:13.003Z,18.40
2022-10-15T11:35:17.121Z,18.40
2022-10-15T11:36:13.571Z,18.30
2022-10-15T11:37:13.512Z,19.40
2022-10-15T11:38:13.381Z,20.10
2022-10-15T11:39:13.394Z,20.00
2022-10-15T11:40:14.529Z,21.10
2022-10-15T11:41:13.739Z,20.30
2022-10-15T11:42:13.968Z,19.80
2022-10-15T11:43:12.973Z,19.70
2022-10-15T11:44:13.117Z,20.00
2022-10-15T11:45:13.367Z,19.50
2022-10-15T11:46:13.796Z,19.60
2022-10-15T11:47:19.069Z,19.60
2022-10-15T11:48:12.915Z,20.00
2022-10-15T11:49:12.854Z,20.10
2022-10-15T11:50:13.771Z,19.40
2022-10-15T11:51:15.810Z,19.90
2022-10-15T11:52:13.686Z,20.00
2022-10-15T11:53:28.708Z,19.50
2022-10-15T11:54:14.048Z,20.10
2022-10-15T11:55:13.191Z,20.50
2022-10-15T11:56:19.466Z,20.80
2022-10-15T11:57:13.323Z,20.00
2022-10-15T11:58:30.394Z,21.90
2022-10-15T11:59:13.679Z,21.90
2022-10-15T12:00:13.642Z,20.90
2022-10-15T12:01:13.517Z,20.60
2022-10-15T12:02:13.581Z,20.20
2022-10-15T12:03:14.079Z,19.30
2022-10-15T12:04:23.603Z,19.40
2022-10-15T12:05:13.788Z,19.60
2022-10-15T12:06:14.048Z,20.40
2022-10-15T12:07:14.250Z,20.10
2022-10-15T12:08:14.117Z,20.40
2022-10-15T12:09:13.129Z,19.70
2022-10-15T12:10:13.305Z,20.90
2022-10-15T12:11:13.283Z,20.80
2022-10-15T12:12:13.250Z,20.50
2022-10-15T12:13:13.477Z,20.10
2022-10-15T12:14:13.695Z,20.30
2022-10-15T12:15:13.590Z,20.30
2022-10-15T12:16:13.758Z,19.60
2022-10-15T12:17:14.392Z,19.80
2022-10-15T12:18:13.424Z,19.80
2022-10-15T12:19:13.310Z,19.80
2022-10-15T12:20:13.282Z,19.20
2022-10-15T12:21:13.433Z,19.30
2022-10-15T12:22:13.468Z,19.10
2022-10-15T12:23:13.850Z,19.20
2022-10-15T12:24:14.035Z,19.40
2022-10-15T12:25:18.120Z,19.20
2022-10-15T12:27:18.233Z,19.10
2022-10-15T12:28:13.125Z,19.10
2022-10-15T12:29:13.113Z,19.30
2022-10-15T12:30:13.194Z,19.20
2022-10-15T12:31:13.212Z,19.30
2022-10-15T12:32:13.134Z,18.90
2022-10-15T12:34:16.822Z,18.80
2022-10-15T12:35:14.135Z,18.60
2022-10-15T12:36:13.288Z,18.70
2022-10-15T12:37:13.239Z,18.60
2022-10-15T12:38:13.505Z,18.90
2022-10-15T12:39:27.810Z,18.70
2022-10-15T12:40:13.467Z,18.80
2022-10-15T12:41:13.663Z,19.10
2022-10-15T12:42:14.113Z,19.30
2022-10-15T12:43:13.315Z,18.70
2022-10-15T12:44:43.348Z,18.90
2022-10-15T12:45:13.572Z,18.90
2022-10-15T12:46:14.074Z,18.50
2022-10-15T12:47:13.348Z,18.40
2022-10-15T12:48:14.732Z,18.70
2022-10-15T12:49:13.930Z,18.70
2022-10-15T12:50:13.191Z,18.60
2022-10-15T12:51:13.427Z,18.80
2022-10-15T12:52:13.542Z,18.90
2022-10-15T12:53:13.501Z,19.10
2022-10-15T12:54:13.516Z,19.30
2022-10-15T12:55:13.497Z,19.40
2022-10-15T12:56:13.667Z,19.20
2022-10-15T12:57:13.948Z,19.30
2022-10-15T12:58:13.235Z,18.90
2022-10-15T12:59:13.390Z,19.00
2022-10-15T13:00:13.275Z,18.60
2022-10-15T13:01:13.563Z,18.70
2022-10-15T13:02:13.638Z,19.10
2022-10-15T13:03:14.051Z,19.10
2022-10-15T13:04:12.971Z,19.00
2022-10-15T13:05:54.198Z,19.00
2022-10-15T13:06:13.886Z,18.80